X  Κλείσε Στοιχεία αεροπορικών μετεωρολογικών δεδομένων METAR     LGTS Thessaloniki Macedonia International Airport
θερμοκρασία
28°C θερμοκρασία
21°C Σημείο δρόσου
66% Υγρασία



Ανεμος
10 KM/H
6 MPH
3 M/S
5 KTS



300°
DVD
Τρέχουσες συνθήκες

Σαφή Σαφή
πίεση 1015.92 (hPa) - 30 (inHg)
Ορατότητα 6 (μίλι) - 9.7 (km)
Aεροδρόμιο
Κωδικός αεροδρομίου LGTS

Τοποθεσία: Thessaloniki Macedonia International Airport
Απόσταση: 85 (km)

Metar:
LGTS 200720Z 30005KT CAVOK 28/21 Q1016 NOSIG

ώρα: 20-06-2024 10:20 EEST